Overview Statistics Trail Chart Weather Telemetry Raw packets
 

This is the latest recevied weather packets stored in our database for station/object SP3VSS-13. If no packets are shown the sender has not sent any weather packets the latest 10 day(s).

<< 25 26 27 28 29 30 31 >>
Time Temp. Humidity Pressure Rain* Wind** Luminosity Snow
1788005817 21.67° C 69% 1000.4 hPa - - - -
1788004916 22.78° C 66% 1000.6 hPa - - - -
1788004016 22.22° C 69% 1000.5 hPa - - - -
1788003114 22.22° C 69% 1000.7 hPa - - - -
1788002213 22.22° C 66% 1000.8 hPa - - - -
1788001313 21.67° C 75% 1000.7 hPa - - - -
1787999511 17.78° C 89% 1000.7 hPa - - - -
1787998610 17.78° C 89% 1000.8 hPa - - - -
1787997709 17.78° C 89% 1000.7 hPa - - - -
1787996808 17.78° C 89% 1000.8 hPa - - - -
1787995907 19.44° C 88% 1000.9 hPa - - - -
1787995006 19.44° C 88% 1000.6 hPa - - - -
1787994105 19.44° C 88% 1000.4 hPa - - - -
1787993204 19.44° C 88% 1000.2 hPa - - - -
1787992303 19.44° C 88% 1000 hPa - - - -
1787991402 19.44° C 88% 999.7 hPa - - - -
1787990501 19.44° C 88% 999.8 hPa - - - -
1787989600 19.44° C 88% 999.7 hPa - - - -
1787988700 18.89° C 87% 999.6 hPa - - - -
1787987799 18.33° C 91% 999.6 hPa - - - -
1787986897 18.89° C 90% 999.7 hPa - - - -
1787985997 18.89° C 89% 999.2 hPa - - - -
1787985096 18.89° C 89% 999.3 hPa - - - -
1787984195 25° C 45% 999.4 hPa - - - -
1787983294 25° C 45% 999.6 hPa - - - -

* Rain since midnight (hover to see other rain measurements)
** Current wind speed in m/s (hover to see current wind gust speed)